createdAt,value
2017-11-08T00:00:00.331Z,994.61
2017-11-08T00:01:00.369Z,994.66
2017-11-08T00:02:00.404Z,994.63
2017-11-08T00:03:00.439Z,994.64
2017-11-08T00:04:00.474Z,994.71
2017-11-08T00:05:00.509Z,994.74
2017-11-08T00:06:00.544Z,994.79
2017-11-08T00:07:00.582Z,994.83
2017-11-08T00:08:00.636Z,994.83
2017-11-08T00:09:00.651Z,994.82
2017-11-08T00:10:00.691Z,994.84
2017-11-08T00:11:00.724Z,994.84
2017-11-08T00:12:00.760Z,994.87
2017-11-08T00:13:00.794Z,994.84
2017-11-08T00:14:00.829Z,994.82
2017-11-08T00:15:00.867Z,994.85
2017-11-08T00:16:00.902Z,994.79
2017-11-08T00:17:00.952Z,994.77
2017-11-08T00:18:00.973Z,994.73
2017-11-08T00:19:01.010Z,994.76
2017-11-08T00:20:01.044Z,994.71
2017-11-08T00:21:01.079Z,994.76
2017-11-08T00:22:01.115Z,994.72
2017-11-08T00:23:01.152Z,994.70
2017-11-08T00:24:01.189Z,994.75
2017-11-08T00:25:01.226Z,994.77
2017-11-08T00:26:01.260Z,994.77
2017-11-08T00:27:01.318Z,994.81
2017-11-08T00:28:01.330Z,994.77
2017-11-08T00:29:01.372Z,994.82
2017-11-08T00:30:01.401Z,994.84
2017-11-08T00:31:01.441Z,994.85
2017-11-08T00:32:01.475Z,994.81
2017-11-08T00:33:01.511Z,994.84
2017-11-08T00:34:01.545Z,994.83
2017-11-08T00:35:01.583Z,994.86
2017-11-08T00:36:01.615Z,994.84
2017-11-08T00:37:01.650Z,994.83
2017-11-08T00:38:01.685Z,994.79
2017-11-08T00:39:01.721Z,994.87
2017-11-08T00:40:01.761Z,994.91
2017-11-08T00:41:01.793Z,994.86
2017-11-08T00:42:01.830Z,994.82
2017-11-08T00:43:01.865Z,994.84
2017-11-08T00:44:01.901Z,994.84
2017-11-08T00:45:01.933Z,994.86
2017-11-08T00:46:01.983Z,994.78
2017-11-08T00:47:02.011Z,994.78
2017-11-08T00:48:02.040Z,994.78
2017-11-08T00:49:02.081Z,994.74
2017-11-08T00:50:02.115Z,994.74
2017-11-08T00:51:02.151Z,994.70
2017-11-08T00:52:02.183Z,994.68
2017-11-08T00:53:02.279Z,994.65
2017-11-08T00:54:02.256Z,994.62
2017-11-08T00:55:02.301Z,994.67
2017-11-08T00:56:02.332Z,994.68
2017-11-08T00:57:02.361Z,994.69
2017-11-08T00:58:02.396Z,994.67
2017-11-08T00:59:02.435Z,994.64
2017-11-08T01:00:02.470Z,994.59
2017-11-08T01:01:02.505Z,994.58
2017-11-08T01:02:02.640Z,994.52
2017-11-08T01:03:02.602Z,994.52
2017-11-08T01:04:02.614Z,994.50
2017-11-08T01:05:02.647Z,994.51
2017-11-08T01:06:02.691Z,994.46
2017-11-08T01:07:02.717Z,994.48
2017-11-08T01:08:02.755Z,994.50
2017-11-08T01:09:02.788Z,994.48
2017-11-08T01:10:02.833Z,994.39
2017-11-08T01:11:02.871Z,994.35
2017-11-08T01:12:02.897Z,994.30
2017-11-08T01:13:02.941Z,994.30
2017-11-08T01:14:02.967Z,994.24
2017-11-08T01:15:03.005Z,994.21
2017-11-08T01:16:03.036Z,994.22
2017-11-08T01:17:03.073Z,994.19
2017-11-08T01:18:03.107Z,994.18
2017-11-08T01:19:03.142Z,994.14
2017-11-08T01:20:03.184Z,994.19
2017-11-08T01:21:03.216Z,994.21
2017-11-08T01:22:03.253Z,994.19
2017-11-08T01:23:03.284Z,994.24
2017-11-08T01:24:03.324Z,994.21
2017-11-08T01:25:03.356Z,994.23
2017-11-08T01:26:03.392Z,994.27
2017-11-08T01:27:03.433Z,994.28
2017-11-08T01:28:03.466Z,994.29
2017-11-08T01:29:03.519Z,994.29
2017-11-08T01:30:03.536Z,994.31
2017-11-08T01:31:03.574Z,994.30
2017-11-08T01:32:03.606Z,994.30
2017-11-08T01:33:03.644Z,994.24
2017-11-08T01:34:03.680Z,994.20
2017-11-08T01:35:03.715Z,994.19
2017-11-08T01:36:03.750Z,994.16
2017-11-08T01:37:03.784Z,994.20
2017-11-08T01:38:03.825Z,994.22
2017-11-08T01:39:03.858Z,994.19
2017-11-08T01:40:03.894Z,994.24
2017-11-08T01:41:03.929Z,994.19
2017-11-08T01:42:03.964Z,994.24
2017-11-08T01:43:04.007Z,994.25
2017-11-08T01:44:04.038Z,994.23
2017-11-08T01:45:04.068Z,994.28
2017-11-08T01:46:04.107Z,994.23
2017-11-08T01:47:04.234Z,994.28
2017-11-08T01:48:04.177Z,994.27
2017-11-08T01:49:04.215Z,994.30
2017-11-08T01:50:04.261Z,994.30
2017-11-08T01:51:04.286Z,994.30
2017-11-08T01:52:04.325Z,994.32
2017-11-08T01:53:04.356Z,994.35
2017-11-08T01:54:04.395Z,994.34
2017-11-08T01:55:04.427Z,994.33
2017-11-08T01:56:04.499Z,994.30
2017-11-08T01:57:04.500Z,994.32
2017-11-08T01:58:04.537Z,994.28
2017-11-08T01:59:04.570Z,994.31
2017-11-08T02:00:04.608Z,994.31
2017-11-08T02:01:04.646Z,994.34
2017-11-08T02:02:04.678Z,994.33
2017-11-08T02:03:04.715Z,994.37
2017-11-08T02:04:04.750Z,994.38
2017-11-08T02:05:04.874Z,994.36
2017-11-08T02:06:04.844Z,994.35
2017-11-08T02:07:04.916Z,994.34
2017-11-08T02:08:04.896Z,994.31
2017-11-08T02:09:04.928Z,994.31
2017-11-08T02:10:04.963Z,994.30
2017-11-08T02:11:05.002Z,994.33
2017-11-08T02:12:05.036Z,994.28
2017-11-08T02:13:05.072Z,994.30
2017-11-08T02:14:05.108Z,994.29
2017-11-08T02:15:05.146Z,994.31
2017-11-08T02:16:05.179Z,994.25
2017-11-08T02:17:05.217Z,994.25
2017-11-08T02:18:05.252Z,994.20
2017-11-08T02:19:05.288Z,994.22
2017-11-08T02:20:05.322Z,994.23
2017-11-08T02:21:05.360Z,994.20
2017-11-08T02:22:05.395Z,994.17
2017-11-08T02:23:05.428Z,994.19
2017-11-08T02:24:05.466Z,994.23
2017-11-08T02:25:05.500Z,994.21
2017-11-08T02:26:05.538Z,994.20
2017-11-08T02:27:05.572Z,994.18
2017-11-08T02:28:05.610Z,994.16
2017-11-08T02:29:05.642Z,994.20
2017-11-08T02:30:05.689Z,994.25
2017-11-08T02:31:05.717Z,994.23
2017-11-08T02:32:05.750Z,994.22
2017-11-08T02:33:05.787Z,994.21
2017-11-08T02:34:05.821Z,994.22
2017-11-08T02:35:05.857Z,994.25
2017-11-08T02:36:05.893Z,994.29
2017-11-08T02:37:05.936Z,994.33
2017-11-08T02:38:05.963Z,994.35
2017-11-08T02:39:05.998Z,994.37
2017-11-08T02:40:06.038Z,994.36
2017-11-08T02:41:06.079Z,994.35
2017-11-08T02:42:06.113Z,994.33
2017-11-08T02:43:06.144Z,994.30
2017-11-08T02:44:06.179Z,994.35
2017-11-08T02:45:06.218Z,994.32
2017-11-08T02:46:06.250Z,994.33
2017-11-08T02:47:06.285Z,994.33
2017-11-08T02:48:06.321Z,994.34
2017-11-08T02:49:06.360Z,994.32
2017-11-08T02:50:06.481Z,994.30
2017-11-08T02:51:06.430Z,994.31
2017-11-08T02:52:06.463Z,994.29
2017-11-08T02:53:06.499Z,994.26
2017-11-08T02:54:06.532Z,994.16
2017-11-08T02:55:06.570Z,994.17
2017-11-08T02:56:06.608Z,994.16
2017-11-08T02:57:06.641Z,994.16
2017-11-08T02:58:06.679Z,994.19
2017-11-08T02:59:06.722Z,994.26
2017-11-08T03:00:06.748Z,994.28
2017-11-08T03:01:06.787Z,994.31
2017-11-08T03:02:06.819Z,994.36
2017-11-08T03:03:06.859Z,994.43
2017-11-08T03:04:06.890Z,994.49
2017-11-08T03:05:06.929Z,994.50
2017-11-08T03:06:06.965Z,994.57
2017-11-08T03:07:06.999Z,994.58
2017-11-08T03:08:07.043Z,994.59
2017-11-08T03:09:07.071Z,994.56
2017-11-08T03:10:07.112Z,994.40
2017-11-08T03:11:07.142Z,994.29
2017-11-08T03:12:07.179Z,994.20
2017-11-08T03:13:07.215Z,994.24
2017-11-08T03:14:07.252Z,994.26
2017-11-08T03:15:07.289Z,994.35
2017-11-08T03:16:07.322Z,994.39
2017-11-08T03:17:07.361Z,994.40
2017-11-08T03:18:07.395Z,994.34
2017-11-08T03:19:07.434Z,994.37
2017-11-08T03:20:07.470Z,994.41
2017-11-08T03:21:07.510Z,994.41
2017-11-08T03:22:07.540Z,994.43
2017-11-08T03:23:07.575Z,994.44
2017-11-08T03:24:07.611Z,994.41
2017-11-08T03:25:07.648Z,994.35
2017-11-08T03:26:07.684Z,994.28
2017-11-08T03:27:07.739Z,994.27
2017-11-08T03:28:07.756Z,994.23
2017-11-08T03:29:07.791Z,994.33
2017-11-08T03:30:07.835Z,994.33
2017-11-08T03:31:07.864Z,994.30
2017-11-08T03:32:07.901Z,994.21
2017-11-08T03:33:07.934Z,994.13
2017-11-08T03:34:07.970Z,994.13
2017-11-08T03:35:08.011Z,994.08
2017-11-08T03:36:08.047Z,994.06
2017-11-08T03:37:08.081Z,994.02
2017-11-08T03:38:08.114Z,994.01
2017-11-08T03:39:08.151Z,993.98
2017-11-08T03:40:08.190Z,993.98
2017-11-08T03:41:08.222Z,993.97
2017-11-08T03:42:08.262Z,993.96
2017-11-08T03:43:08.294Z,994.01
2017-11-08T03:44:08.407Z,994.01
2017-11-08T03:45:08.367Z,994.09
2017-11-08T03:46:08.405Z,994.01
2017-11-08T03:47:08.443Z,994.08
2017-11-08T03:48:08.475Z,994.13
2017-11-08T03:49:08.508Z,994.19
2017-11-08T03:50:08.544Z,994.21
2017-11-08T03:51:08.582Z,994.20
2017-11-08T03:52:08.618Z,994.15
2017-11-08T03:53:08.665Z,993.98
2017-11-08T03:54:08.690Z,993.91
2017-11-08T03:55:08.779Z,993.83
2017-11-08T03:56:08.762Z,993.83
2017-11-08T03:57:08.800Z,993.81
2017-11-08T03:58:08.832Z,993.84
2017-11-08T03:59:08.866Z,993.82
2017-11-08T04:00:08.906Z,993.82
2017-11-08T04:01:08.937Z,993.86
2017-11-08T04:02:09.000Z,993.81
2017-11-08T04:03:09.012Z,993.83
2017-11-08T04:04:09.048Z,993.82
2017-11-08T04:05:09.084Z,993.83
2017-11-08T04:06:09.118Z,993.81
2017-11-08T04:07:09.152Z,993.81
2017-11-08T04:08:09.192Z,993.83
2017-11-08T04:09:09.225Z,993.87
2017-11-08T04:10:09.266Z,993.87
2017-11-08T04:11:09.297Z,993.89
2017-11-08T04:12:09.333Z,993.86
2017-11-08T04:13:09.367Z,993.87
2017-11-08T04:14:09.403Z,993.83
2017-11-08T04:15:09.442Z,993.80
2017-11-08T04:16:09.475Z,993.80
2017-11-08T04:17:09.514Z,993.84
2017-11-08T04:18:09.548Z,993.83
2017-11-08T04:19:09.595Z,993.87
2017-11-08T04:20:09.617Z,993.90
2017-11-08T04:21:09.663Z,993.89
2017-11-08T04:22:09.694Z,993.86
2017-11-08T04:23:09.726Z,993.89
2017-11-08T04:24:09.765Z,993.88
2017-11-08T04:25:09.795Z,993.80
2017-11-08T04:26:09.832Z,993.76
2017-11-08T04:27:09.876Z,993.73
2017-11-08T04:28:09.903Z,993.78
2017-11-08T04:29:09.939Z,993.83
2017-11-08T04:30:09.975Z,993.80
2017-11-08T04:31:10.015Z,993.86
2017-11-08T04:32:10.065Z,993.91
2017-11-08T04:33:10.085Z,993.86
2017-11-08T04:34:10.119Z,993.85
2017-11-08T04:35:10.154Z,993.83
2017-11-08T04:36:10.189Z,993.85
2017-11-08T04:37:10.225Z,993.81
2017-11-08T04:38:10.376Z,993.80
2017-11-08T04:39:10.298Z,993.80
2017-11-08T04:40:10.340Z,993.79
2017-11-08T04:41:10.363Z,993.79
2017-11-08T04:42:10.403Z,993.79
2017-11-08T04:43:10.439Z,993.75
2017-11-08T04:44:10.475Z,993.81
2017-11-08T04:45:10.510Z,993.83
2017-11-08T04:46:10.558Z,993.78
2017-11-08T04:47:10.670Z,993.77
2017-11-08T04:48:10.619Z,993.76
2017-11-08T04:49:10.654Z,993.81
2017-11-08T04:50:10.685Z,993.78
2017-11-08T04:51:10.720Z,993.83
2017-11-08T04:52:10.756Z,993.85
2017-11-08T04:53:10.791Z,993.91
2017-11-08T04:54:10.830Z,993.90
2017-11-08T04:55:10.867Z,993.90
2017-11-08T04:56:11.031Z,993.87
2017-11-08T04:57:10.931Z,993.87
2017-11-08T04:58:10.978Z,993.89
2017-11-08T04:59:11.010Z,993.89
2017-11-08T05:00:11.042Z,993.97
2017-11-08T05:01:11.075Z,993.98
2017-11-08T05:02:11.110Z,994.01
2017-11-08T05:03:11.149Z,994.00
2017-11-08T05:04:11.184Z,994.04
2017-11-08T05:05:11.218Z,994.00
2017-11-08T05:06:11.250Z,994.00
2017-11-08T05:07:11.289Z,994.03
2017-11-08T05:08:11.320Z,994.02
2017-11-08T05:09:11.354Z,994.06
2017-11-08T05:10:11.392Z,994.02
2017-11-08T05:11:11.429Z,993.98
2017-11-08T05:12:11.470Z,994.02
2017-11-08T05:13:11.500Z,994.09
2017-11-08T05:14:11.539Z,994.11
2017-11-08T05:15:11.571Z,994.14
2017-11-08T05:16:11.607Z,994.10
2017-11-08T05:17:11.639Z,994.13
2017-11-08T05:18:11.677Z,994.11
2017-11-08T05:19:11.715Z,994.14
2017-11-08T05:20:11.747Z,994.15
2017-11-08T05:21:11.779Z,994.13
2017-11-08T05:22:11.814Z,994.18
2017-11-08T05:23:11.860Z,994.13
2017-11-08T05:24:11.887Z,994.13
2017-11-08T05:25:11.919Z,994.16
2017-11-08T05:26:11.957Z,994.17
2017-11-08T05:27:11.993Z,994.15
2017-11-08T05:28:12.027Z,994.14
2017-11-08T05:29:12.063Z,994.15
2017-11-08T05:30:12.098Z,994.15
2017-11-08T05:31:12.132Z,994.14
2017-11-08T05:32:12.180Z,994.14
2017-11-08T05:33:12.203Z,994.11
2017-11-08T05:34:12.270Z,994.13
2017-11-08T05:35:12.279Z,994.09
2017-11-08T05:36:12.311Z,994.11
2017-11-08T05:37:12.348Z,994.13
2017-11-08T05:38:12.379Z,994.12
2017-11-08T05:39:12.439Z,994.13
2017-11-08T05:40:12.452Z,994.13
2017-11-08T05:41:12.512Z,994.17
2017-11-08T05:42:12.523Z,994.14
2017-11-08T05:43:12.574Z,994.18
2017-11-08T05:44:12.593Z,994.18
2017-11-08T05:45:12.628Z,994.18
2017-11-08T05:46:12.665Z,994.22
2017-11-08T05:47:12.701Z,994.26
2017-11-08T05:48:12.733Z,994.27
2017-11-08T05:49:12.769Z,994.28
2017-11-08T05:50:12.832Z,994.31
2017-11-08T05:51:12.844Z,994.26
2017-11-08T05:52:12.884Z,994.24
2017-11-08T05:53:12.911Z,994.20
2017-11-08T05:54:12.950Z,994.23
2017-11-08T05:55:12.983Z,994.26
2017-11-08T05:56:13.020Z,994.34
2017-11-08T05:57:13.052Z,994.35
2017-11-08T05:58:13.091Z,994.38
2017-11-08T05:59:13.124Z,994.38
2017-11-08T06:00:13.159Z,994.37
2017-11-08T06:01:13.195Z,994.37
2017-11-08T06:02:13.230Z,994.35
2017-11-08T06:03:13.266Z,994.40
2017-11-08T06:04:13.303Z,994.37
2017-11-08T06:05:13.335Z,994.34
2017-11-08T06:06:13.426Z,994.32
2017-11-08T06:07:13.411Z,994.23
2017-11-08T06:08:13.443Z,994.12
2017-11-08T06:09:13.481Z,994.11
2017-11-08T06:10:13.514Z,994.13
2017-11-08T06:11:13.549Z,994.22
2017-11-08T06:12:13.588Z,994.29
2017-11-08T06:13:13.619Z,994.31
2017-11-08T06:14:13.653Z,994.30
2017-11-08T06:15:13.690Z,994.32
2017-11-08T06:16:13.726Z,994.27
2017-11-08T06:17:13.777Z,994.28
2017-11-08T06:18:13.802Z,994.30
2017-11-08T06:19:13.832Z,994.31
2017-11-08T06:20:13.869Z,994.35
2017-11-08T06:21:13.903Z,994.37
2017-11-08T06:22:13.940Z,994.42
2017-11-08T06:23:13.972Z,994.40
2017-11-08T06:24:14.010Z,994.36
2017-11-08T06:25:14.043Z,994.37
2017-11-08T06:26:14.080Z,994.40
2017-11-08T06:27:14.131Z,994.43
2017-11-08T06:28:14.151Z,994.47
2017-11-08T06:29:14.183Z,994.52
2017-11-08T06:30:14.222Z,994.50
2017-11-08T06:31:14.258Z,994.52
2017-11-08T06:32:14.305Z,994.52
2017-11-08T06:33:14.326Z,994.55
2017-11-08T06:34:14.361Z,994.56
2017-11-08T06:35:14.401Z,994.57
2017-11-08T06:36:14.434Z,994.55
2017-11-08T06:37:14.576Z,994.52
2017-11-08T06:38:14.505Z,994.50
2017-11-08T06:39:14.546Z,994.55
2017-11-08T06:40:14.580Z,994.57
2017-11-08T06:41:14.612Z,994.62
2017-11-08T06:42:14.648Z,994.61
2017-11-08T06:43:14.684Z,994.60
2017-11-08T06:44:14.718Z,994.62
2017-11-08T06:45:14.753Z,994.63
2017-11-08T06:46:14.845Z,994.61
2017-11-08T06:47:14.828Z,994.62
2017-11-08T06:48:14.862Z,994.66
2017-11-08T06:49:14.898Z,994.69
2017-11-08T06:50:14.932Z,994.67
2017-11-08T06:51:14.973Z,994.69
2017-11-08T06:52:15.004Z,994.65
2017-11-08T06:53:15.034Z,994.70
2017-11-08T06:54:15.071Z,994.66
2017-11-08T06:55:15.122Z,994.70
2017-11-08T06:56:15.142Z,994.70
2017-11-08T06:57:15.175Z,994.73
2017-11-08T06:58:15.210Z,994.73
2017-11-08T06:59:15.257Z,994.79
2017-11-08T07:00:15.287Z,994.80
2017-11-08T07:01:15.318Z,994.81
2017-11-08T07:02:15.352Z,994.83
2017-11-08T07:03:15.388Z,994.79
2017-11-08T07:04:15.426Z,994.77
2017-11-08T07:05:15.463Z,994.81
2017-11-08T07:06:15.495Z,994.85
2017-11-08T07:07:15.535Z,994.95
2017-11-08T07:08:15.566Z,994.95
2017-11-08T07:09:15.602Z,994.95
2017-11-08T07:10:15.636Z,994.90
2017-11-08T07:11:15.674Z,994.89
2017-11-08T07:12:15.714Z,994.85
2017-11-08T07:13:15.744Z,994.85
2017-11-08T07:14:15.776Z,994.90
2017-11-08T07:15:15.815Z,994.93
2017-11-08T07:16:15.866Z,994.98
2017-11-08T07:17:15.889Z,994.99
2017-11-08T07:18:15.919Z,994.97
2017-11-08T07:19:15.955Z,994.90
2017-11-08T07:20:15.990Z,994.87
2017-11-08T07:21:16.029Z,994.87
2017-11-08T07:22:16.059Z,994.84
2017-11-08T07:23:16.094Z,994.81
2017-11-08T07:24:16.134Z,994.77
2017-11-08T07:25:16.166Z,994.77
2017-11-08T07:26:16.205Z,994.79
2017-11-08T07:27:16.242Z,994.80
2017-11-08T07:28:16.280Z,994.81
2017-11-08T07:29:16.307Z,994.87
2017-11-08T07:30:16.343Z,994.86
2017-11-08T07:31:16.402Z,994.88
2017-11-08T07:32:16.414Z,994.88
2017-11-08T07:33:16.454Z,994.90
2017-11-08T07:34:16.485Z,994.94
2017-11-08T07:35:16.521Z,994.95
2017-11-08T07:36:16.558Z,994.96
2017-11-08T07:37:16.589Z,994.98
2017-11-08T07:38:16.624Z,994.98
2017-11-08T07:39:16.665Z,994.95
2017-11-08T07:40:16.713Z,994.96
2017-11-08T07:41:16.735Z,994.95
2017-11-08T07:42:16.775Z,994.96
2017-11-08T07:43:16.805Z,994.95
2017-11-08T07:44:16.840Z,994.97
2017-11-08T07:45:16.875Z,994.99
2017-11-08T07:46:16.910Z,994.95
2017-11-08T07:47:16.945Z,994.90
2017-11-08T07:48:16.981Z,994.96
2017-11-08T07:49:17.093Z,994.88
2017-11-08T07:50:17.052Z,994.82
2017-11-08T07:51:17.091Z,994.73
2017-11-08T07:52:17.125Z,994.69
2017-11-08T07:53:17.160Z,994.66
2017-11-08T07:54:17.199Z,994.64
2017-11-08T07:55:17.230Z,994.67
2017-11-08T07:56:17.267Z,994.74
2017-11-08T07:57:17.310Z,994.81
2017-11-08T07:58:17.337Z,994.83
2017-11-08T07:59:17.372Z,994.83
2017-11-08T08:00:17.410Z,994.86
2017-11-08T08:01:17.441Z,994.83
2017-11-08T08:02:17.480Z,994.84
2017-11-08T08:03:17.531Z,994.79
2017-11-08T08:04:17.551Z,994.81
2017-11-08T08:05:17.586Z,994.83
2017-11-08T08:06:17.622Z,994.84
2017-11-08T08:07:17.657Z,994.91
2017-11-08T08:08:17.697Z,994.94
2017-11-08T08:09:17.729Z,994.95
2017-11-08T08:10:17.765Z,994.97
2017-11-08T08:11:17.801Z,994.92
2017-11-08T08:12:17.837Z,994.94
2017-11-08T08:13:17.871Z,994.92
2017-11-08T08:14:17.906Z,994.95
2017-11-08T08:15:17.942Z,994.93
2017-11-08T08:16:17.980Z,994.94
2017-11-08T08:17:18.022Z,994.94
2017-11-08T08:18:18.057Z,995.01
2017-11-08T08:19:18.090Z,995.01
2017-11-08T08:20:18.123Z,995.03
2017-11-08T08:21:18.177Z,995.03
2017-11-08T08:22:18.195Z,995.03
2017-11-08T08:23:18.231Z,995.04
2017-11-08T08:24:18.271Z,994.99
2017-11-08T08:25:18.310Z,995.02
2017-11-08T08:26:18.340Z,995.02
2017-11-08T08:27:18.394Z,995.09
2017-11-08T08:28:18.410Z,995.09
2017-11-08T08:29:18.444Z,995.07
2017-11-08T08:30:18.481Z,995.07
2017-11-08T08:31:18.519Z,995.06
2017-11-08T08:32:18.553Z,995.04
2017-11-08T08:33:18.596Z,995.05
2017-11-08T08:34:18.665Z,995.09
2017-11-08T08:35:18.664Z,995.07
2017-11-08T08:36:18.702Z,995.05
2017-11-08T08:37:18.731Z,995.09
2017-11-08T08:38:18.770Z,995.06
2017-11-08T08:39:18.803Z,995.04
2017-11-08T08:40:18.840Z,994.99
2017-11-08T08:41:18.878Z,995.02
2017-11-08T08:42:18.911Z,994.97
2017-11-08T08:43:18.961Z,995.01
2017-11-08T08:44:18.983Z,995.01
2017-11-08T08:45:19.023Z,995.03
2017-11-08T08:46:19.059Z,994.98
2017-11-08T08:47:19.091Z,995.00
2017-11-08T08:48:19.135Z,995.00
2017-11-08T08:49:19.162Z,995.03
2017-11-08T08:50:19.205Z,995.05
2017-11-08T08:51:19.234Z,995.04
2017-11-08T08:52:19.274Z,995.03
2017-11-08T08:53:19.307Z,995.06
2017-11-08T08:54:19.343Z,995.06
2017-11-08T08:55:19.384Z,995.07
2017-11-08T08:56:19.420Z,995.11
2017-11-08T08:57:19.453Z,995.15
2017-11-08T08:58:19.490Z,995.09
2017-11-08T08:59:19.525Z,995.11
2017-11-08T09:00:19.559Z,995.13
2017-11-08T09:01:19.601Z,995.16
2017-11-08T09:02:19.645Z,995.18
2017-11-08T09:03:19.672Z,995.17
2017-11-08T09:04:19.706Z,995.17
2017-11-08T09:05:19.742Z,995.19
2017-11-08T09:06:19.777Z,995.18
2017-11-08T09:07:19.814Z,995.22
2017-11-08T09:08:19.851Z,995.24
2017-11-08T09:09:19.886Z,995.26
2017-11-08T09:10:19.928Z,995.30
2017-11-08T09:11:19.959Z,995.32
2017-11-08T09:12:19.996Z,995.33
2017-11-08T09:13:20.030Z,995.31
2017-11-08T09:14:20.065Z,995.35
2017-11-08T09:15:20.102Z,995.31
2017-11-08T09:16:20.137Z,995.30
2017-11-08T09:17:20.175Z,995.36
2017-11-08T09:18:20.211Z,995.39
2017-11-08T09:19:20.303Z,995.40
2017-11-08T09:20:20.284Z,995.40
2017-11-08T09:21:20.321Z,995.45
2017-11-08T09:22:20.359Z,995.45
2017-11-08T09:23:20.394Z,995.47
2017-11-08T09:24:20.432Z,995.46
2017-11-08T09:25:20.465Z,995.46
2017-11-08T09:26:20.503Z,995.47
2017-11-08T09:27:20.555Z,995.48
2017-11-08T09:28:20.692Z,995.51
2017-11-08T09:29:20.613Z,995.49
2017-11-08T09:30:20.647Z,995.54
2017-11-08T09:31:20.685Z,995.55
2017-11-08T09:32:20.717Z,995.58
2017-11-08T09:33:20.756Z,995.57
2017-11-08T09:34:20.791Z,995.56
2017-11-08T09:35:20.828Z,995.61
2017-11-08T09:36:20.862Z,995.64
2017-11-08T09:37:20.972Z,995.62
2017-11-08T09:38:20.935Z,995.61
2017-11-08T09:39:20.987Z,995.63
2017-11-08T09:40:21.012Z,995.59
2017-11-08T09:41:21.043Z,995.60
2017-11-08T09:42:21.082Z,995.61
2017-11-08T09:43:21.117Z,995.65
2017-11-08T09:44:21.154Z,995.64
2017-11-08T09:45:21.194Z,995.70
2017-11-08T09:46:21.235Z,995.67
2017-11-08T09:47:21.262Z,995.75
2017-11-08T09:48:21.298Z,995.74
2017-11-08T09:49:21.337Z,995.75
2017-11-08T09:50:21.377Z,995.72
2017-11-08T09:51:21.407Z,995.67
2017-11-08T09:52:21.443Z,995.67
2017-11-08T09:53:21.479Z,995.64
2017-11-08T09:54:21.521Z,995.66
2017-11-08T09:55:21.561Z,995.60
2017-11-08T09:56:21.589Z,995.61
2017-11-08T09:57:21.624Z,995.70
2017-11-08T09:58:21.659Z,995.72
2017-11-08T09:59:21.720Z,995.69
2017-11-08T10:00:21.734Z,995.74
2017-11-08T10:01:21.772Z,995.76
2017-11-08T10:02:21.804Z,995.83
2017-11-08T10:03:21.844Z,995.79
2017-11-08T10:04:21.880Z,995.82
2017-11-08T10:05:21.914Z,995.84
2017-11-08T10:06:21.954Z,995.80
2017-11-08T10:07:22.039Z,995.84
2017-11-08T10:08:22.049Z,995.86
2017-11-08T10:09:22.060Z,995.77
2017-11-08T10:10:22.097Z,995.73
2017-11-08T10:11:22.134Z,995.71
2017-11-08T10:12:22.173Z,995.67
2017-11-08T10:13:22.228Z,995.66
2017-11-08T10:14:22.245Z,995.67
2017-11-08T10:15:22.284Z,995.67
2017-11-08T10:16:22.315Z,995.67
2017-11-08T10:17:22.351Z,995.69
2017-11-08T10:18:22.448Z,995.72
2017-11-08T10:19:22.425Z,995.72
2017-11-08T10:20:22.464Z,995.77
2017-11-08T10:21:22.497Z,995.80
2017-11-08T10:22:22.635Z,995.78
2017-11-08T10:23:22.569Z,995.78
2017-11-08T10:24:22.607Z,995.76
2017-11-08T10:25:22.647Z,995.70
2017-11-08T10:26:22.685Z,995.68
2017-11-08T10:27:22.719Z,995.60
2017-11-08T10:28:22.755Z,995.62
2017-11-08T10:29:22.793Z,995.66
2017-11-08T10:30:22.825Z,995.67
2017-11-08T10:31:22.968Z,995.77
2017-11-08T10:32:22.897Z,995.77
2017-11-08T10:33:22.940Z,995.85
2017-11-08T10:34:22.971Z,995.90
2017-11-08T10:35:23.012Z,995.88
2017-11-08T10:36:23.047Z,995.89
2017-11-08T10:37:23.082Z,995.93
2017-11-08T10:38:23.117Z,995.96
2017-11-08T10:39:23.158Z,995.98
2017-11-08T10:40:23.190Z,995.98
2017-11-08T10:41:23.225Z,995.95
2017-11-08T10:42:23.233Z,995.96
2017-11-08T10:43:23.271Z,995.99
2017-11-08T10:44:23.300Z,995.96
2017-11-08T10:45:23.340Z,995.99
2017-11-08T10:46:23.374Z,995.94
2017-11-08T10:47:23.419Z,995.97
2017-11-08T10:48:23.445Z,995.95
2017-11-08T10:49:23.479Z,995.87
2017-11-08T10:50:23.521Z,995.80
2017-11-08T10:51:23.556Z,995.81
2017-11-08T10:52:23.593Z,995.85
2017-11-08T10:53:23.626Z,995.81
2017-11-08T10:54:23.662Z,995.85
2017-11-08T10:55:23.699Z,995.87
2017-11-08T10:56:23.740Z,995.89
2017-11-08T10:57:23.772Z,995.89
2017-11-08T10:58:23.813Z,995.92
2017-11-08T10:59:23.846Z,995.83
2017-11-08T11:00:23.887Z,995.77
2017-11-08T11:01:23.921Z,995.80
2017-11-08T11:02:23.956Z,995.78
2017-11-08T11:03:23.993Z,995.73
2017-11-08T11:04:24.030Z,995.73
2017-11-08T11:05:24.066Z,995.79
2017-11-08T11:06:24.104Z,995.77
2017-11-08T11:07:24.147Z,995.78
2017-11-08T11:08:24.179Z,995.83
2017-11-08T11:09:24.217Z,995.82
2017-11-08T11:10:24.260Z,995.81
2017-11-08T11:11:24.294Z,995.85
2017-11-08T11:12:24.325Z,995.85
2017-11-08T11:13:24.368Z,995.81
2017-11-08T11:14:24.406Z,995.84
2017-11-08T11:15:24.436Z,995.84
2017-11-08T11:16:24.500Z,995.85
2017-11-08T11:17:24.512Z,995.84
2017-11-08T11:18:24.548Z,995.77
2017-11-08T11:19:24.587Z,995.82
2017-11-08T11:20:24.622Z,995.79
2017-11-08T11:21:24.660Z,995.72
2017-11-08T11:22:24.704Z,995.65
2017-11-08T11:23:24.808Z,995.67
2017-11-08T11:24:24.770Z,995.66
2017-11-08T11:25:24.920Z,995.64
2017-11-08T11:26:24.843Z,995.62
2017-11-08T11:27:24.881Z,995.58
2017-11-08T11:28:24.920Z,995.60
2017-11-08T11:29:24.955Z,995.59
2017-11-08T11:30:24.991Z,995.58
2017-11-08T11:31:25.030Z,995.56
2017-11-08T11:32:25.164Z,995.58
2017-11-08T11:33:25.104Z,995.58
2017-11-08T11:34:25.183Z,995.59
2017-11-08T11:35:25.178Z,995.61
2017-11-08T11:36:25.215Z,995.64
2017-11-08T11:37:25.253Z,995.58
2017-11-08T11:38:25.291Z,995.62
2017-11-08T11:40:25.386Z,995.62
2017-11-08T11:41:25.403Z,995.67
2017-11-08T11:42:25.441Z,995.69
2017-11-08T11:43:25.477Z,995.65
2017-11-08T11:44:25.516Z,995.65
2017-11-08T11:45:25.562Z,995.69
2017-11-08T11:46:25.596Z,995.71
2017-11-08T11:47:25.634Z,995.70
2017-11-08T11:48:25.667Z,995.67
2017-11-08T11:49:25.699Z,995.67
2017-11-08T11:50:25.740Z,995.68
2017-11-08T11:51:25.780Z,995.66
2017-11-08T11:52:25.811Z,995.68
2017-11-08T11:53:25.848Z,995.66
2017-11-08T11:54:25.887Z,995.71
2017-11-08T11:55:25.931Z,995.67
2017-11-08T11:56:25.962Z,995.62
2017-11-08T11:57:26.021Z,995.61
2017-11-08T11:58:26.033Z,995.57
2017-11-08T11:59:26.071Z,995.57
2017-11-08T12:00:26.109Z,995.57
2017-11-08T12:01:26.146Z,995.62
2017-11-08T12:02:26.185Z,995.63
2017-11-08T12:03:26.225Z,995.69
2017-11-08T12:04:26.256Z,995.74
2017-11-08T12:05:26.293Z,995.73
2017-11-08T12:06:26.341Z,995.73
2017-11-08T12:07:26.366Z,995.68
2017-11-08T12:08:26.435Z,995.69
2017-11-08T12:09:26.441Z,995.71
2017-11-08T12:10:26.482Z,995.68
2017-11-08T12:11:26.523Z,995.65
2017-11-08T12:12:26.554Z,995.67
2017-11-08T12:13:26.593Z,995.66
2017-11-08T12:14:26.632Z,995.71
2017-11-08T12:15:26.671Z,995.70
2017-11-08T12:16:26.709Z,995.71
2017-11-08T12:17:26.779Z,995.68
2017-11-08T12:18:26.778Z,995.73
2017-11-08T12:19:26.817Z,995.74
2017-11-08T12:20:26.850Z,995.76
2017-11-08T12:21:26.894Z,995.70
2017-11-08T12:22:26.928Z,995.65
2017-11-08T12:23:26.965Z,995.61
2017-11-08T12:24:27.005Z,995.60
2017-11-08T12:25:27.044Z,995.60
2017-11-08T12:26:27.120Z,995.62
2017-11-08T12:27:27.111Z,995.66
2017-11-08T12:28:27.151Z,995.72
2017-11-08T12:29:27.186Z,995.67